Time;durP1;ratioP1;P1;durP2;ratioP2;P2;SDS_P1;SDS_P2;PMS_P1;PMS_P2;Temp;Humidity;BMP_temperature;BMP_pressure;BME280_temperature;BME280_humidity;BME280_pressure;Samples;Min_cycle;Max_cycle;Signal;HPM_P1;HPM_P2
2022/10/29 00:00:14;;;;;;;9.70;4.40;;;;;;;17.32;85.14;101031.25;4995316;28;20224;-79
2022/10/29 00:02:41;;;;;;;7.97;4.37;;;;;;;17.30;85.13;101041.00;4995756;28;20208;-79
2022/10/29 00:05:08;;;;;;;7.80;5.10;;;;;;;17.33;84.92;101051.47;4995098;28;20283;-79
2022/10/29 00:07:34;;;;;;;10.60;5.30;;;;;;;17.28;85.04;101054.25;4995998;28;20577;-78
2022/10/29 00:10:02;;;;;;;11.07;6.07;;;;;;;17.27;84.87;101065.72;4995275;28;20207;-79
2022/10/29 00:12:29;;;;;;;10.63;5.50;;;;;;;17.25;84.99;101070.22;4995260;28;20235;-79
2022/10/29 00:14:55;;;;;;;10.60;5.93;;;;;;;17.22;85.16;101055.34;4996502;28;20236;-79
2022/10/29 00:17:22;;;;;;;9.70;4.53;;;;;;;17.19;85.34;101052.81;4995295;28;20216;-80
2022/10/29 00:19:48;;;;;;;8.87;4.53;;;;;;;17.20;85.67;101051.88;4995671;28;20215;-79
2022/10/29 00:22:15;;;;;;;13.57;4.67;;;;;;;17.23;85.74;101049.16;4995628;28;20204;-79
2022/10/29 00:24:41;;;;;;;9.63;5.00;;;;;;;17.22;84.60;101075.59;4996010;28;20725;-79
2022/10/29 00:27:09;;;;;;;18.97;6.30;;;;;;;17.20;84.02;101094.09;4997091;28;20207;-79
2022/10/29 00:29:35;;;;;;;9.67;5.07;;;;;;;17.25;85.78;101070.22;4995577;28;20203;-80
2022/10/29 00:32:02;;;;;;;10.73;4.53;;;;;;;17.30;86.02;101055.03;4994978;28;20227;-79
2022/10/29 00:34:28;;;;;;;15.03;4.80;;;;;;;17.30;86.00;101049.78;4995106;28;20232;-79
2022/10/29 00:36:55;;;;;;;12.17;5.00;;;;;;;17.32;86.00;101037.38;4995394;28;20208;-79
2022/10/29 00:39:21;;;;;;;12.37;5.03;;;;;;;17.34;86.00;101032.06;4995507;28;20210;-79
2022/10/29 00:41:48;;;;;;;15.37;5.30;;;;;;;17.30;86.33;101031.28;4995841;28;20211;-80
2022/10/29 00:44:34;;;;;;;7.63;4.90;;;;;;;17.17;85.83;101043.25;4994872;28;20238;-79
2022/10/29 00:47:18;;;;;;;9.97;4.93;;;;;;;17.23;85.16;101072.91;4995736;28;20205;-81
2022/10/29 00:49:47;;;;;;;11.00;5.60;;;;;;;17.27;85.45;101076.28;4996081;28;20216;-79
2022/10/29 00:52:15;;;;;;;12.77;4.93;;;;;;;17.29;85.68;101078.88;4995802;28;20240;-79
2022/10/29 00:54:44;;;;;;;11.27;4.87;;;;;;;17.27;85.57;101073.66;4995810;28;20746;-79
2022/10/29 00:57:14;;;;;;;10.33;5.60;;;;;;;17.26;85.65;101071.91;4996125;28;20215;-80
2022/10/29 00:59:44;;;;;;;9.03;5.00;;;;;;;17.18;85.58;101063.41;4996257;28;20211;-79
2022/10/29 01:02:10;;;;;;;7.33;4.47;;;;;;;17.14;85.90;101062.66;4996556;28;20205;-78
2022/10/29 01:04:38;;;;;;;9.17;5.00;;;;;;;17.04;86.01;101059.50;4995626;28;20231;-79
2022/10/29 01:07:05;;;;;;;9.33;5.03;;;;;;;16.98;85.77;101065.00;4995922;28;20211;-80
2022/10/29 01:09:32;;;;;;;14.63;5.03;;;;;;;17.03;85.81;101064.84;4994927;28;20208;-79
2022/10/29 01:12:16;;;;;;;12.63;5.37;;;;;;;17.05;86.05;101063.03;4996283;28;20234;-79
2022/10/29 01:14:52;;;;;;;6.47;4.93;;;;;;;17.02;86.06;101063.97;5000074;28;20240;-79
2022/10/29 01:17:30;;;;;;;9.53;4.27;;;;;;;17.01;86.36;101051.72;4999802;28;20218;-80
2022/10/29 01:20:33;;;;;;;17.50;5.00;;;;;;;16.86;87.83;101029.38;4999326;28;20218;-79
2022/10/29 01:23:11;;;;;;;18.03;5.93;;;;;;;16.86;87.40;101032.00;4977853;28;20207;-79
2022/10/29 01:26:02;;;;;;;9.67;4.50;;;;;;;16.88;88.08;101006.44;4999886;28;20207;-79
2022/10/29 01:28:41;;;;;;;11.50;5.13;;;;;;;16.88;87.92;101005.59;4999074;28;20204;-79
2022/10/29 01:31:18;;;;;;;7.17;4.93;;;;;;;16.88;87.96;101000.31;4999226;28;20243;-80
2022/10/29 01:33:54;;;;;;;11.20;5.43;;;;;;;16.92;87.85;100996.66;4999469;28;20254;-78
2022/10/29 01:36:29;;;;;;;13.43;5.03;;;;;;;16.91;87.83;101009.88;4999063;28;20194;-80
2022/10/29 01:39:03;;;;;;;12.20;5.27;;;;;;;16.90;88.05;100998.47;5000090;28;20195;-79
2022/10/29 01:41:39;;;;;;;12.77;5.73;;;;;;;16.87;88.26;100999.47;4999191;28;20199;-79
2022/10/29 01:44:11;;;;;;;17.17;6.23;;;;;;;16.87;88.30;101004.72;4997886;28;20234;-79
2022/10/29 01:46:44;;;;;;;7.07;4.83;;;;;;;16.88;88.29;101011.72;4998304;28;20214;-79
2022/10/29 01:49:28;;;;;;;11.40;5.40;;;;;;;16.84;88.08;101017.16;4999626;28;20211;-80
2022/10/29 01:51:56;;;;;;;9.43;4.80;;;;;;;16.87;87.71;101030.25;4998787;28;20281;-80
2022/10/29 01:54:23;;;;;;;9.17;5.03;;;;;;;16.86;87.85;101026.72;4999032;28;20724;-80
2022/10/29 01:56:54;;;;;;;7.43;4.90;;;;;;;16.85;88.30;101019.75;4998484;28;20212;-79
2022/10/29 01:59:20;;;;;;;9.93;4.80;;;;;;;16.88;88.08;101027.53;4998849;28;20230;-78
2022/10/29 02:01:55;;;;;;;10.50;4.93;;;;;;;16.90;87.89;101037.19;4998245;28;20531;-80
2022/10/29 02:04:36;;;;;;;8.80;5.23;;;;;;;16.86;87.91;101044.34;4999143;28;20229;-79
2022/10/29 02:07:11;;;;;;;9.93;5.57;;;;;;;16.92;87.90;101041.47;4998763;28;20193;-78
2022/10/29 02:09:51;;;;;;;7.43;5.13;;;;;;;16.89;88.02;101036.34;4998753;28;20207;-78
2022/10/29 02:12:23;;;;;;;6.03;5.13;;;;;;;16.92;88.06;101038.00;4999081;28;20227;-79
2022/10/29 02:14:54;;;;;;;11.27;6.07;;;;;;;16.90;88.07;101038.03;4997655;28;20230;-78
2022/10/29 02:17:22;;;;;;;14.40;5.43;;;;;;;16.91;88.03;101041.53;4998932;28;20693;-78
2022/10/29 02:19:48;;;;;;;14.10;4.80;;;;;;;16.86;88.14;101031.16;4998148;28;20210;-80
2022/10/29 02:22:15;;;;;;;16.60;5.77;;;;;;;16.88;88.04;101035.44;4998568;28;20203;-80
2022/10/29 02:24:41;;;;;;;17.77;5.67;;;;;;;16.87;87.86;101035.53;4997311;28;20492;-79
2022/10/29 02:27:07;;;;;;;13.57;5.43;;;;;;;16.87;87.67;101038.16;4996994;28;20211;-78
2022/10/29 02:29:34;;;;;;;8.47;5.60;;;;;;;16.85;87.71;101051.41;4998172;28;20218;-79
2022/10/29 02:32:00;;;;;;;7.83;5.23;;;;;;;16.86;87.55;101061.00;4997241;28;20228;-79
2022/10/29 02:34:28;;;;;;;7.33;5.03;;;;;;;16.85;87.63;101056.66;4997535;28;20282;-80
2022/10/29 02:36:54;;;;;;;13.13;5.43;;;;;;;16.85;87.55;101064.59;4997173;28;20211;-78
2022/10/29 02:39:21;;;;;;;7.57;4.87;;;;;;;16.85;87.79;101045.28;4998346;28;20213;-79
2022/10/29 02:41:47;;;;;;;10.63;4.90;;;;;;;16.82;87.77;101032.19;4997394;28;20200;-78
2022/10/29 02:44:14;;;;;;;10.77;5.27;;;;;;;16.74;88.51;101024.50;4997690;28;20236;-79
2022/10/29 02:46:40;;;;;;;10.13;5.20;;;;;;;16.74;88.68;101006.06;4998310;28;20203;-78
2022/10/29 02:49:07;;;;;;;18.23;5.60;;;;;;;16.71;88.83;100998.28;4998025;28;20203;-78
2022/10/29 02:51:35;;;;;;;10.03;5.60;;;;;;;16.73;88.56;100998.19;4996478;28;20241;-79
2022/10/29 02:54:01;;;;;;;11.57;5.13;;;;;;;16.73;88.44;101000.81;4997403;28;20226;-78
2022/10/29 02:56:27;;;;;;;9.33;5.50;;;;;;;16.77;88.33;101010.34;4997734;28;20207;-80
2022/10/29 02:58:54;;;;;;;9.60;5.33;;;;;;;16.71;88.32;101016.72;4996678;28;20215;-78
2022/10/29 03:01:20;;;;;;;8.63;5.30;;;;;;;16.64;88.37;101009.94;4997032;28;20204;-79
2022/10/29 03:03:47;;;;;;;12.80;5.70;;;;;;;16.64;88.40;101012.56;4996431;28;20227;-78
2022/10/29 03:06:14;;;;;;;7.67;4.50;;;;;;;16.65;88.25;101020.44;4997262;28;20215;-78
2022/10/29 03:08:42;;;;;;;11.47;5.73;;;;;;;16.61;88.03;101023.19;4997570;28;20211;-79
2022/10/29 03:11:09;;;;;;;9.03;5.33;;;;;;;16.59;87.92;101019.75;4996697;28;20215;-79
2022/10/29 03:13:35;;;;;;;10.33;5.63;;;;;;;16.57;87.83;101017.19;4996660;28;20223;-78
2022/10/29 03:16:02;;;;;;;7.83;5.17;;;;;;;16.56;87.70;101020.72;4996946;28;20204;-78
2022/10/29 03:18:28;;;;;;;10.27;5.03;;;;;;;16.57;87.58;101016.31;4997028;28;20211;-78
2022/10/29 03:20:55;;;;;;;16.23;5.80;;;;;;;16.54;87.53;101024.34;4997362;28;20215;-78
2022/10/29 03:23:22;;;;;;;11.53;5.73;;;;;;;16.52;87.42;101019.13;4996410;28;20206;-79
2022/10/29 03:25:52;;;;;;;13.90;5.73;;;;;;;16.48;87.19;101026.25;4997276;28;20211;-78
2022/10/29 03:28:18;;;;;;;10.43;5.13;;;;;;;16.45;87.33;101023.75;4997773;28;20282;-78
2022/10/29 03:30:45;;;;;;;10.13;4.80;;;;;;;16.41;87.50;101015.97;4995788;28;20215;-78
2022/10/29 03:33:11;;;;;;;11.57;5.70;;;;;;;16.37;87.39;101009.09;4996432;28;20240;-79
2022/10/29 03:35:38;;;;;;;11.93;5.43;;;;;;;16.32;87.73;101004.00;4997065;28;20204;-78
2022/10/29 03:38:04;;;;;;;11.17;5.50;;;;;;;16.29;87.65;101009.34;4996914;28;20206;-78
2022/10/29 03:40:30;;;;;;;8.93;5.70;;;;;;;16.25;88.05;100997.19;4997209;28;20222;-79
2022/10/29 03:42:58;;;;;;;8.13;5.67;;;;;;;16.24;88.04;101001.59;4996485;28;20208;-78
2022/10/29 03:45:25;;;;;;;10.93;5.70;;;;;;;16.19;88.18;101000.03;4997008;28;20232;-79
2022/10/29 03:47:51;;;;;;;12.07;5.93;;;;;;;16.14;88.30;100997.56;4996307;28;20208;-79
2022/10/29 03:50:18;;;;;;;8.37;6.07;;;;;;;16.10;88.64;100995.94;4997157;28;20636;-78
2022/10/29 03:52:44;;;;;;;11.03;6.27;;;;;;;16.14;89.01;100987.03;4996264;28;20226;-79
2022/10/29 03:55:11;;;;;;;12.33;6.70;;;;;;;16.13;88.95;100987.94;4996672;28;20231;-78
2022/10/29 03:57:37;;;;;;;9.90;5.53;;;;;;;16.10;89.50;100985.41;4996075;28;20571;-80
2022/10/29 04:00:06;;;;;;;8.83;5.70;;;;;;;16.12;89.60;100978.31;4995606;28;20207;-78
2022/10/29 04:02:33;;;;;;;10.27;5.93;;;;;;;16.10;89.67;100963.50;4996562;28;20206;-78
2022/10/29 04:04:59;;;;;;;13.73;7.00;;;;;;;16.12;89.71;100964.31;4996047;28;20739;-79
2022/10/29 04:07:26;;;;;;;11.03;6.40;;;;;;;16.08;90.03;100953.00;4995750;28;20204;-78
2022/10/29 04:09:52;;;;;;;8.90;5.53;;;;;;;16.07;90.15;100952.16;4996923;28;20212;-78
2022/10/29 04:12:18;;;;;;;12.40;6.07;;;;;;;16.06;90.34;100954.81;4995707;28;20227;-80
2022/10/29 04:14:45;;;;;;;10.87;5.93;;;;;;;16.03;90.29;100957.56;4996115;28;20229;-79
2022/10/29 04:17:13;;;;;;;10.63;6.50;;;;;;;16.06;90.33;100960.94;4995917;28;20853;-78
2022/10/29 04:19:40;;;;;;;8.20;6.40;;;;;;;16.04;90.74;100956.66;4995967;28;20214;-79
2022/10/29 04:22:06;;;;;;;8.67;6.17;;;;;;;16.08;90.65;100966.16;4996826;28;20236;-79
2022/10/29 04:24:33;;;;;;;9.87;6.40;;;;;;;16.06;90.87;100953.03;4996319;28;20230;-80
2022/10/29 04:26:59;;;;;;;14.03;7.80;;;;;;;16.05;91.15;100951.34;4995992;28;20714;-78
2022/10/29 04:29:26;;;;;;;13.47;6.90;;;;;;;16.08;91.53;100927.53;4995838;28;20561;-78
2022/10/29 04:31:52;;;;;;;11.77;6.23;;;;;;;16.08;91.59;100926.66;4996985;28;20604;-78
2022/10/29 04:34:20;;;;;;;9.73;5.90;;;;;;;16.07;91.83;100928.44;4996151;28;20231;-80
2022/10/29 04:36:46;;;;;;;13.40;7.00;;;;;;;16.12;91.71;100932.69;4996320;28;20206;-79
2022/10/29 04:39:13;;;;;;;13.30;7.10;;;;;;;16.07;92.02;100927.56;4996849;28;20209;-79
2022/10/29 04:41:39;;;;;;;15.03;6.87;;;;;;;16.07;92.07;100924.94;4996278;28;20223;-79
2022/10/29 04:44:06;;;;;;;13.60;7.00;;;;;;;16.07;92.07;100932.84;4995814;28;20244;-79
2022/10/29 04:46:32;;;;;;;15.87;6.90;;;;;;;16.12;91.84;100932.69;5014184;22;20239;-78
2022/10/29 04:48:59;;;;;;;11.27;6.07;;;;;;;16.12;92.42;100923.00;4991360;28;20620;-79
2022/10/29 04:51:27;;;;;;;10.77;6.83;;;;;;;16.15;92.21;100927.31;4996103;28;20213;-79
2022/10/29 04:53:53;;;;;;;12.00;6.10;;;;;;;16.15;92.14;100928.16;4995644;28;20227;-79
2022/10/29 04:56:20;;;;;;;13.07;6.00;;;;;;;16.12;92.55;100917.75;4997090;28;20239;-79
2022/10/29 04:58:46;;;;;;;9.93;7.07;;;;;;;16.14;92.26;100925.59;4996547;28;20215;-78
2022/10/29 05:01:13;;;;;;;17.10;7.80;;;;;;;16.10;92.45;100924.00;4996810;28;20214;-79
2022/10/29 05:03:39;;;;;;;10.43;6.70;;;;;;;16.08;92.64;100919.63;4997371;28;20207;-78
2022/10/29 05:06:06;;;;;;;10.23;6.37;;;;;;;16.08;92.62;100910.88;4996044;28;20350;-79
2022/10/29 05:08:34;;;;;;;8.37;6.20;;;;;;;16.03;93.33;100908.38;4996070;28;20646;-77
2022/10/29 05:11:02;;;;;;;13.83;7.03;;;;;;;16.04;93.38;100909.25;4995096;28;20211;-79
2022/10/29 05:13:29;;;;;;;10.93;6.90;;;;;;;16.00;93.56;100911.13;4994969;28;20262;-79
2022/10/29 05:15:56;;;;;;;11.73;6.80;;;;;;;16.04;93.02;100914.53;4995022;28;20223;-79
2022/10/29 05:18:22;;;;;;;15.67;7.20;;;;;;;16.05;93.07;100921.50;4996054;28;20217;-78
2022/10/29 05:20:52;;;;;;;13.50;7.50;;;;;;;16.06;93.05;100923.22;4994454;28;20214;-78
2022/10/29 05:23:19;;;;;;;10.27;7.13;;;;;;;16.07;92.91;100924.94;4996914;28;20203;-78
2022/10/29 05:25:48;;;;;;;13.37;6.80;;;;;;;16.10;92.63;100930.09;4995186;28;20234;-79
2022/10/29 05:28:18;;;;;;;16.27;6.80;;;;;;;16.08;92.73;100934.56;4995216;28;20220;-79
2022/10/29 05:30:44;;;;;;;10.00;6.57;;;;;;;16.08;92.78;100931.94;4995482;28;20212;-79
2022/10/29 05:33:14;;;;;;;12.87;6.77;;;;;;;16.07;92.49;100928.44;4995131;28;20234;-79
2022/10/29 05:35:40;;;;;;;15.77;7.10;;;;;;;16.07;91.83;100935.47;4995686;28;20227;-79
2022/10/29 05:38:09;;;;;;;10.20;6.10;;;;;;;16.01;92.78;100940.94;4996337;28;20211;-79
2022/10/29 05:40:36;;;;;;;12.07;7.13;;;;;;;15.99;93.18;100926.97;4995866;28;20211;-79
2022/10/29 05:43:04;;;;;;;11.53;6.57;;;;;;;15.96;93.99;100912.16;4994520;28;20211;-80
2022/10/29 05:45:30;;;;;;;13.70;6.87;;;;;;;15.99;93.89;100916.44;4994607;28;20290;-78
2022/10/29 05:47:57;;;;;;;11.83;6.37;;;;;;;16.04;93.80;100919.78;4995530;28;20207;-80
2022/10/29 05:50:24;;;;;;;11.77;7.20;;;;;;;16.05;93.57;100921.50;4995923;28;20207;-79
2022/10/29 05:52:55;;;;;;;15.53;7.50;;;;;;;16.06;93.73;100924.06;4995653;28;20228;-79
2022/10/29 05:55:22;;;;;;;10.67;6.97;;;;;;;16.12;93.38;100932.69;4995390;28;20276;-79
2022/10/29 05:57:48;;;;;;;12.50;6.80;;;;;;;16.17;93.15;100936.00;4996374;28;20218;-78
2022/10/29 06:00:16;;;;;;;14.60;6.93;;;;;;;16.19;92.85;100939.47;4994540;28;20214;-79
2022/10/29 06:02:43;;;;;;;12.30;7.03;;;;;;;16.22;92.49;100953.38;4995112;28;20207;-77
2022/10/29 06:05:09;;;;;;;11.70;6.90;;;;;;;16.24;92.17;100963.88;4995234;28;20218;-79
2022/10/29 06:07:36;;;;;;;10.13;6.47;;;;;;;16.25;91.96;100982.28;4987502;28;20706;-81
2022/10/29 06:10:03;;;;;;;9.47;6.37;;;;;;;16.25;91.87;100991.94;4988869;28;20671;-80
2022/10/29 06:12:31;;;;;;;11.03;5.90;;;;;;;16.23;91.99;100988.47;4987149;28;20219;-81
2022/10/29 06:14:58;;;;;;;13.40;6.43;;;;;;;16.17;92.57;100986.91;4984932;28;20235;-79
2022/10/29 06:17:26;;;;;;;9.13;6.83;;;;;;;16.09;93.14;100970.50;4985024;28;20211;-79
2022/10/29 06:19:52;;;;;;;13.53;6.67;;;;;;;16.08;93.40;100960.91;4984706;28;20202;-79
2022/10/29 06:22:18;;;;;;;11.27;6.57;;;;;;;16.13;93.18;100955.47;4984053;28;20214;-80
2022/10/29 06:24:45;;;;;;;14.30;8.07;;;;;;;16.12;93.30;100949.34;4986109;28;20233;-79
2022/10/29 06:27:11;;;;;;;12.37;6.67;;;;;;;16.10;93.42;100951.19;4981689;28;20220;-80
2022/10/29 06:29:38;;;;;;;11.47;6.83;;;;;;;16.10;93.64;100945.91;4985115;28;20210;-80
2022/10/29 06:32:04;;;;;;;9.33;6.70;;;;;;;16.13;93.45;100950.19;4985688;28;20212;-80
2022/10/29 06:34:32;;;;;;;10.73;5.77;;;;;;;16.12;93.67;100936.19;4985944;28;20678;-79
2022/10/29 06:36:58;;;;;;;10.67;6.90;;;;;;;16.13;93.82;100939.66;4984969;28;20297;-80
2022/10/29 06:39:25;;;;;;;13.90;6.30;;;;;;;16.08;93.91;100938.06;4983031;28;20690;-78
2022/10/29 06:41:51;;;;;;;11.67;7.27;;;;;;;16.13;93.99;100932.63;4982437;28;20682;-80
2022/10/29 06:44:18;;;;;;;9.10;5.83;;;;;;;16.15;93.95;100937.84;4986600;28;20196;-80
2022/10/29 06:46:44;;;;;;;12.40;6.90;;;;;;;16.18;93.54;100948.28;4984561;28;20241;-78
2022/10/29 06:49:11;;;;;;;14.60;7.17;;;;;;;16.24;92.63;100966.50;4983328;28;20210;-80
2022/10/29 06:51:38;;;;;;;9.40;6.20;;;;;;;16.24;93.10;100972.63;4984215;28;20633;-80
2022/10/29 06:54:05;;;;;;;13.50;6.90;;;;;;;16.17;93.90;100960.56;4980967;28;20535;-77
2022/10/29 06:56:32;;;;;;;10.60;5.97;;;;;;;16.18;94.10;100951.78;4984677;28;20217;-80
2022/10/29 06:58:59;;;;;;;10.73;5.77;;;;;;;16.21;94.25;100935.88;4983774;28;20228;-79
2022/10/29 07:01:27;;;;;;;9.10;5.80;;;;;;;16.25;94.09;100939.25;4983376;28;20211;-78
2022/10/29 07:03:54;;;;;;;14.47;5.87;;;;;;;16.28;93.70;100936.53;4983878;28;20221;-80
2022/10/29 07:06:20;;;;;;;17.47;7.07;;;;;;;16.32;93.96;100942.53;4982125;28;20224;-77
2022/10/29 07:08:48;;;;;;;13.40;5.97;;;;;;;16.34;93.93;100946.00;4981608;28;20215;-78
2022/10/29 07:11:15;;;;;;;9.07;6.10;;;;;;;16.33;93.68;100950.38;4983367;28;20242;-79
2022/10/29 07:13:42;;;;;;;9.57;6.37;;;;;;;16.37;93.74;100953.75;4982320;28;20230;-78
2022/10/29 07:16:08;;;;;;;8.40;5.53;;;;;;;16.37;93.90;100949.38;4986549;28;20716;-80
2022/10/29 07:18:34;;;;;;;10.87;6.60;;;;;;;16.40;93.60;100951.88;4986113;28;20689;-78
2022/10/29 07:21:03;;;;;;;10.37;6.17;;;;;;;16.42;93.48;100967.66;4980947;28;20202;-80
2022/10/29 07:23:29;;;;;;;19.50;6.30;;;;;;;16.37;93.96;100957.28;4983130;28;20220;-80
2022/10/29 07:25:57;;;;;;;10.87;6.70;;;;;;;16.42;94.26;100959.75;4985953;28;20712;-78
2022/10/29 07:28:24;;;;;;;11.40;6.27;;;;;;;16.42;94.17;100965.03;4984867;28;20581;-79
2022/10/29 07:30:51;;;;;;;11.07;6.23;;;;;;;16.46;94.30;100964.00;4982589;28;20196;-78
2022/10/29 07:33:18;;;;;;;17.63;6.57;;;;;;;16.49;94.32;100961.25;4983218;28;20730;-81
2022/10/29 07:35:46;;;;;;;13.30;7.37;;;;;;;16.53;94.21;100962.88;4983530;28;20228;-77
2022/10/29 07:38:13;;;;;;;14.33;6.40;;;;;;;16.56;94.00;100972.44;4982529;28;20203;-80
2022/10/29 07:40:45;;;;;;;17.13;6.73;;;;;;;16.55;94.06;100968.06;4987731;28;20196;-79
2022/10/29 07:43:13;;;;;;;11.27;6.40;;;;;;;16.60;93.71;100977.53;4979962;28;20201;-79
2022/10/29 07:45:41;;;;;;;12.57;5.67;;;;;;;16.60;93.99;100974.91;4989730;28;20235;-79
2022/10/29 07:48:09;;;;;;;10.47;6.30;;;;;;;16.64;93.81;100978.31;4993462;28;20285;-79
2022/10/29 07:50:37;;;;;;;10.23;6.97;;;;;;;16.67;93.56;100983.47;4993338;28;20215;-79
2022/10/29 07:53:04;;;;;;;10.23;5.83;;;;;;;16.66;93.57;100987.00;4993116;28;20227;-78
2022/10/29 07:55:31;;;;;;;13.50;5.47;;;;;;;16.64;93.65;100983.56;4993051;28;20588;-80
2022/10/29 07:58:00;;;;;;;12.23;5.90;;;;;;;16.67;93.58;100980.84;4992712;28;20214;-79
2022/10/29 08:00:28;;;;;;;9.07;7.00;;;;;;;16.66;93.63;100995.78;4991289;28;20234;-80
2022/10/29 08:02:55;;;;;;;8.67;5.83;;;;;;;16.58;94.03;100992.53;4993584;28;20678;-79
2022/10/29 08:05:22;;;;;;;9.73;6.77;;;;;;;16.59;93.79;100982.84;4992050;28;20238;-77
2022/10/29 08:07:48;;;;;;;8.87;6.20;;;;;;;16.63;93.71;100982.72;4993623;28;20215;-78
2022/10/29 08:10:15;;;;;;;9.20;6.33;;;;;;;16.78;94.52;100972.53;4992169;28;20214;-78
2022/10/29 08:12:48;;;;;;;13.20;5.57;;;;;;;16.90;94.62;100958.94;4992050;28;20215;-79
2022/10/29 08:15:15;;;;;;;7.67;6.03;;;;;;;16.97;94.69;100955.16;4992179;28;20738;-78
2022/10/29 08:17:43;;;;;;;10.27;5.97;;;;;;;17.00;94.28;100962.09;4986156;28;20200;-78
2022/10/29 08:20:10;;;;;;;8.90;5.50;;;;;;;17.05;93.55;100978.63;4982073;28;20214;-77
2022/10/29 08:22:36;;;;;;;10.80;5.53;;;;;;;17.17;94.33;100983.41;4981269;28;20192;-77
2022/10/29 08:25:03;;;;;;;10.73;5.87;;;;;;;17.21;94.54;100977.09;4981271;28;20200;-78
2022/10/29 08:27:30;;;;;;;11.70;5.70;;;;;;;17.36;95.90;100948.41;4982042;28;20200;-78
2022/10/29 08:29:56;;;;;;;7.70;5.87;;;;;;;17.44;95.30;100960.41;4982540;28;20208;-79
2022/10/29 08:32:23;;;;;;;10.23;5.73;;;;;;;17.40;94.48;100986.94;4982116;28;20215;-78
2022/10/29 08:34:50;;;;;;;9.47;5.77;;;;;;;17.47;94.11;100985.81;4981226;28;20693;-77
2022/10/29 08:37:17;;;;;;;14.63;5.90;;;;;;;17.55;94.93;100970.53;4980872;28;20234;-77
2022/10/29 08:39:43;;;;;;;7.07;5.83;;;;;;;17.62;94.28;100976.41;4981923;28;20200;-79
2022/10/29 08:42:25;;;;;;;8.83;6.17;;;;;;;17.65;94.28;100985.06;4980908;28;20232;-78
2022/10/29 08:45:05;;;;;;;18.27;5.90;;;;;;;17.71;93.68;100985.75;4981302;28;20205;-78
2022/10/29 08:47:42;;;;;;;12.13;5.57;;;;;;;17.70;93.50;100991.94;4981006;28;20204;-79
2022/10/29 08:50:19;;;;;;;11.80;6.97;;;;;;;17.70;92.92;100997.22;4980866;28;20211;-80
2022/10/29 08:52:47;;;;;;;11.37;6.63;;;;;;;17.65;91.73;101019.41;4992896;28;20207;-80
2022/10/29 08:55:17;;;;;;;14.03;8.57;;;;;;;17.55;90.36;101049.72;4992680;28;20233;-79
2022/10/29 08:57:54;;;;;;;15.37;7.43;;;;;;;17.54;91.71;101034.81;4993637;28;20223;-80
2022/10/29 09:00:30;;;;;;;11.10;6.37;;;;;;;17.52;92.42;101007.63;4991639;28;20208;-79
2022/10/29 09:03:00;;;;;;;10.40;7.07;;;;;;;17.50;92.90;100977.75;4992625;28;20204;-80
2022/10/29 09:05:32;;;;;;;11.83;7.10;;;;;;;17.49;92.82;100975.19;4992528;28;20225;-81
2022/10/29 09:08:25;;;;;;;10.97;7.00;;;;;;;17.56;93.12;100976.66;4992833;28;20213;-80
2022/10/29 09:10:54;;;;;;;10.23;6.73;;;;;;;17.65;91.94;100994.78;4992208;28;20208;-79
2022/10/29 09:13:32;;;;;;;9.53;6.60;;;;;;;17.72;90.47;101035.88;4992841;28;20231;-80
2022/10/29 09:16:29;;;;;;;12.40;7.37;;;;;;;17.85;89.73;101060.91;4993209;28;20224;-79
2022/10/29 09:19:22;;;;;;;9.20;7.60;;;;;;;17.88;90.31;101046.72;4991282;28;20212;-80
2022/10/29 09:21:58;;;;;;;11.50;6.37;;;;;;;17.94;90.94;101046.47;4991125;28;20219;-79
2022/10/29 09:24:33;;;;;;;11.70;7.30;;;;;;;17.98;91.83;101024.31;4991726;28;20207;-80
2022/10/29 09:27:05;;;;;;;10.40;5.50;;;;;;;18.10;91.46;101009.75;4992114;28;20229;-81
2022/10/29 09:29:59;;;;;;;15.33;5.90;;;;;;;18.16;93.69;100969.00;4991788;28;20209;-79
2022/10/29 09:32:29;;;;;;;10.67;6.73;;;;;;;18.20;93.58;100960.88;4987824;28;20209;-79
2022/10/29 09:35:01;;;;;;;16.93;6.67;;;;;;;18.14;93.64;100971.69;4994989;28;20229;-78
2022/10/29 09:37:38;;;;;;;7.63;6.10;;;;;;;18.20;92.80;100981.16;4995493;28;20640;-80
2022/10/29 09:40:13;;;;;;;10.13;6.20;;;;;;;18.14;87.84;101089.75;4995551;28;20209;-79
2022/10/29 09:42:44;;;;;;;10.90;6.00;;;;;;;18.20;87.09;101148.47;4997117;28;20223;-80
2022/10/29 09:45:16;;;;;;;20.87;7.50;;;;;;;18.36;87.17;101138.16;4995783;28;20208;-79
2022/10/29 09:47:52;;;;;;;7.87;5.67;;;;;;;18.40;88.82;101113.31;4996565;28;20295;-78
2022/10/29 09:50:27;;;;;;;11.07;7.07;;;;;;;18.42;89.00;101084.19;4995033;28;20213;-79
2022/10/29 09:52:55;;;;;;;11.30;6.80;;;;;;;18.39;88.02;101098.41;4995403;28;20208;-78
2022/10/29 09:55:25;;;;;;;12.30;6.70;;;;;;;18.45;88.80;101071.72;4995515;28;20711;-81
2022/10/29 09:57:52;;;;;;;8.80;6.87;;;;;;;18.47;88.18;101087.47;4996844;28;20682;-80
2022/10/29 10:00:22;;;;;;;18.53;6.60;;;;;;;18.47;87.19;101100.69;4995852;28;20213;-80
2022/10/29 10:02:54;;;;;;;9.70;6.47;;;;;;;18.44;87.06;101130.78;4994150;28;20209;-79
2022/10/29 10:05:25;;;;;;;12.60;6.73;;;;;;;18.48;86.30;101150.03;4995646;28;20230;-78
2022/10/29 10:08:11;;;;;;;10.17;6.03;;;;;;;18.47;86.32;101156.22;4995722;28;20197;-80
2022/10/29 10:10:50;;;;;;;10.30;6.03;;;;;;;18.45;85.13;101187.16;4996163;28;20212;-81
2022/10/29 10:13:17;;;;;;;11.83;7.07;;;;;;;18.44;84.90;101186.28;4995751;28;20552;-79
2022/10/29 10:15:50;;;;;;;12.63;6.20;;;;;;;18.44;85.37;101169.56;4996391;28;20369;-79
2022/10/29 10:18:19;;;;;;;10.93;6.43;;;;;;;18.49;83.41;101209.91;4995097;28;20207;-80
2022/10/29 10:20:48;;;;;;;9.30;4.93;;;;;;;18.53;82.24;101227.38;4996923;28;20207;-79
2022/10/29 10:23:24;;;;;;;11.47;6.10;;;;;;;18.48;81.87;101252.28;4993804;28;20208;-79
2022/10/29 10:25:51;;;;;;;17.30;6.07;;;;;;;18.46;81.56;101268.19;4993658;28;20231;-79
2022/10/29 10:28:20;;;;;;;8.33;5.40;;;;;;;18.41;81.11;101270.13;4993024;28;20210;-78
2022/10/29 10:31:06;;;;;;;7.20;5.10;;;;;;;18.44;80.64;101284.09;4993591;28;20209;-81
2022/10/29 10:33:34;;;;;;;16.80;6.50;;;;;;;18.46;81.49;101258.47;4993897;28;20209;-80
2022/10/29 10:36:04;;;;;;;10.60;5.87;;;;;;;18.51;81.39;101249.50;4993431;28;20224;-78
2022/10/29 10:38:40;;;;;;;10.43;5.30;;;;;;;18.52;81.13;101238.88;4993737;28;20694;-79
2022/10/29 10:41:08;;;;;;;8.57;5.87;;;;;;;18.51;80.56;101253.00;4996365;28;20204;-78
2022/10/29 10:43:35;;;;;;;11.77;5.13;;;;;;;18.56;81.12;101240.47;4993652;28;20223;-79
2022/10/29 10:48:31;;;;;;;14.70;6.17;;;;;;;18.63;81.37;101217.28;4991193;28;20223;-80
2022/10/29 10:51:23;;;;;;;8.27;5.57;;;;;;;18.71;80.00;101236.38;4998783;28;20578;-77
2022/10/29 10:53:51;;;;;;;11.13;5.67;;;;;;;18.79;80.00;101228.09;4997446;28;20719;-81
2022/10/29 10:56:20;;;;;;;12.17;5.50;;;;;;;18.92;79.51;101226.72;4998615;28;20228;-80
2022/10/29 10:58:57;;;;;;;8.37;5.23;;;;;;;18.99;79.09;101253.81;4997594;28;20681;-79
2022/10/29 11:01:28;;;;;;;8.87;5.27;;;;;;;19.03;78.88;101255.41;4996593;28;20218;-80
2022/10/29 11:04:03;;;;;;;12.67;6.40;;;;;;;19.10;78.71;101253.34;4997175;28;20601;-78
2022/10/29 11:06:34;;;;;;;11.40;5.80;;;;;;;19.27;79.45;101239.41;4996634;28;20223;-80
2022/10/29 11:09:10;;;;;;;9.47;5.13;;;;;;;19.30;77.70;101265.75;4995983;28;20210;-81
2022/10/29 11:11:40;;;;;;;9.93;5.30;;;;;;;19.45;78.09;101265.09;4999091;28;20206;-82
2022/10/29 11:14:12;;;;;;;10.43;5.80;;;;;;;19.62;79.33;101230.81;5001707;28;20290;-80
2022/10/29 11:16:45;;;;;;;10.20;5.40;;;;;;;19.67;79.21;101208.56;5001722;28;20226;-81
2022/10/29 11:19:20;;;;;;;9.63;5.93;;;;;;;19.75;77.31;101265.59;4994735;28;20215;-79
2022/10/29 11:21:59;;;;;;;10.57;5.70;;;;;;;19.79;77.87;101255.72;4994926;28;20219;-81
2022/10/29 11:24:37;;;;;;;8.30;5.97;;;;;;;19.87;78.35;101234.19;4994235;28;20200;-81
2022/10/29 11:27:11;;;;;;;10.80;5.20;;;;;;;19.92;78.44;101238.34;4994131;28;20704;-80
2022/10/29 11:29:45;;;;;;;8.53;6.20;;;;;;;20.05;78.44;101222.72;4994070;28;20207;-80
2022/10/29 11:32:19;;;;;;;8.07;5.10;;;;;;;20.11;77.72;101235.69;4993667;28;20215;-80